createdAt,value
2018-03-01T00:00:12.750Z,58.80
2018-03-01T00:02:41.068Z,58.70
2018-03-01T00:05:09.374Z,58.50
2018-03-01T00:07:37.727Z,58.50
2018-03-01T00:10:06.030Z,58.60
2018-03-01T00:12:34.381Z,58.10
2018-03-01T00:15:02.685Z,57.90
2018-03-01T00:17:31.786Z,58.40
2018-03-01T00:20:00.862Z,58.50
2018-03-01T00:22:37.058Z,58.40
2018-03-01T00:25:05.362Z,58.50
2018-03-01T00:27:34.462Z,58.60
2018-03-01T00:30:03.531Z,58.60
2018-03-01T00:32:31.870Z,58.60
2018-03-01T00:35:00.938Z,58.70
2018-03-01T00:37:29.288Z,58.70
2018-03-01T00:39:57.629Z,58.60
2018-03-01T00:42:25.934Z,58.30
2018-03-01T00:44:55.486Z,57.90
2018-03-01T00:47:23.794Z,58.20
2018-03-01T00:49:52.090Z,58.30
2018-03-01T00:52:20.426Z,58.40
2018-03-01T00:54:49.503Z,59.20
2018-03-01T00:57:17.842Z,59.10
2018-03-01T00:59:46.145Z,59.20
2018-03-01T01:02:14.473Z,59.30
2018-03-01T01:04:42.814Z,59.40
2018-03-01T01:07:11.122Z,59.20
2018-03-01T01:09:39.462Z,59.10
2018-03-01T01:12:07.803Z,59.40
2018-03-01T01:14:36.115Z,58.80
2018-03-01T01:17:04.544Z,59.10
2018-03-01T01:19:33.955Z,59.00
2018-03-01T01:22:02.254Z,58.90
2018-03-01T01:24:31.322Z,59.50
2018-03-01T01:26:59.661Z,59.40
2018-03-01T01:29:28.729Z,59.60
2018-03-01T01:31:57.097Z,59.60
2018-03-01T01:34:25.397Z,59.90
2018-03-01T01:36:53.740Z,59.90
2018-03-01T01:39:22.846Z,60.00
2018-03-01T01:41:51.151Z,60.00
2018-03-01T01:44:19.499Z,60.60
2018-03-01T01:46:47.817Z,61.00
2018-03-01T01:49:16.163Z,61.00
2018-03-01T01:51:44.475Z,60.80
2018-03-01T01:54:12.821Z,61.10
2018-03-01T01:56:41.170Z,61.40
2018-03-01T01:59:10.283Z,61.50
2018-03-01T02:01:38.599Z,61.40
2018-03-01T02:04:06.938Z,61.30
2018-03-01T02:06:35.333Z,61.10
2018-03-01T02:09:03.651Z,61.10
2018-03-01T02:11:31.999Z,61.40
2018-03-01T02:14:00.302Z,61.40
2018-03-01T02:16:28.633Z,61.50
2018-03-01T02:18:56.942Z,61.70
2018-03-01T02:21:25.286Z,62.10
2018-03-01T02:23:54.366Z,62.40
2018-03-01T02:26:22.710Z,62.40
2018-03-01T02:28:51.053Z,62.70
2018-03-01T02:31:19.364Z,62.70
2018-03-01T02:33:48.443Z,62.50
2018-03-01T02:36:28.729Z,62.40
2018-03-01T02:38:57.122Z,62.70
2018-03-01T02:41:26.205Z,63.40
2018-03-01T02:43:54.541Z,63.20
2018-03-01T02:46:22.856Z,63.40
2018-03-01T02:48:51.208Z,63.40
2018-03-01T02:51:20.290Z,63.40
2018-03-01T02:53:48.650Z,63.30
2018-03-01T02:56:16.966Z,62.90
2018-03-01T02:58:45.690Z,62.90
2018-03-01T03:01:14.788Z,63.10
2018-03-01T03:03:43.878Z,63.60
2018-03-01T03:06:12.227Z,63.50
2018-03-01T03:08:40.534Z,63.50
2018-03-01T03:11:08.873Z,63.50
2018-03-01T03:13:37.967Z,64.00
2018-03-01T03:16:06.310Z,64.00
2018-03-01T03:18:34.629Z,64.50
2018-03-01T03:21:02.971Z,64.70
2018-03-01T03:23:31.287Z,64.40
2018-03-01T03:25:59.596Z,64.50
2018-03-01T03:28:27.937Z,64.60
2018-03-01T03:30:57.011Z,64.70
2018-03-01T03:33:26.562Z,64.60
2018-03-01T03:35:56.232Z,64.70
2018-03-01T03:38:24.542Z,64.60
2018-03-01T03:40:52.883Z,64.90
2018-03-01T03:43:21.221Z,65.10
2018-03-01T03:45:49.535Z,65.00
2018-03-01T03:48:18.606Z,64.40
2018-03-01T03:50:46.951Z,64.30
2018-03-01T03:53:15.299Z,64.90
2018-03-01T03:55:43.606Z,65.20
2018-03-01T03:58:12.709Z,65.20
2018-03-01T04:00:41.018Z,65.10
2018-03-01T04:03:10.122Z,65.70
2018-03-01T04:05:39.199Z,65.80
2018-03-01T04:08:07.819Z,65.70
2018-03-01T04:10:36.902Z,65.70
2018-03-01T04:13:05.209Z,65.60
2018-03-01T04:15:34.335Z,65.70
2018-03-01T04:18:03.458Z,66.00
2018-03-01T04:20:32.779Z,65.30
2018-03-01T04:23:02.158Z,65.70
2018-03-01T04:25:31.437Z,65.30
2018-03-01T04:28:00.444Z,65.30
2018-03-01T04:30:28.860Z,65.50
2018-03-01T04:32:57.377Z,65.60
2018-03-01T04:35:26.437Z,65.90
2018-03-01T04:37:55.677Z,65.80
2018-03-01T04:40:24.786Z,66.30
2018-03-01T04:42:54.166Z,66.20
2018-03-01T04:45:23.367Z,66.10
2018-03-01T04:47:51.972Z,66.10
2018-03-01T04:50:21.286Z,66.80
2018-03-01T04:52:50.058Z,66.10
2018-03-01T04:55:19.501Z,66.60
2018-03-01T04:57:48.098Z,65.90
2018-03-01T05:00:16.696Z,65.90
2018-03-01T05:02:46.621Z,65.60
2018-03-01T05:05:15.525Z,65.60
2018-03-01T05:07:43.931Z,65.50
2018-03-01T05:10:12.513Z,66.20
2018-03-01T05:12:41.212Z,66.40
2018-03-01T05:15:10.525Z,66.80
2018-03-01T05:17:39.121Z,66.70
2018-03-01T05:20:07.717Z,67.40
2018-03-01T05:22:36.336Z,66.90
2018-03-01T05:25:05.416Z,66.80
2018-03-01T05:27:34.736Z,66.70
2018-03-01T05:30:03.126Z,66.70
2018-03-01T05:32:31.723Z,66.90
2018-03-01T05:35:00.167Z,66.60
2018-03-01T05:37:28.486Z,66.50
2018-03-01T05:39:56.765Z,66.80
2018-03-01T05:42:25.059Z,66.80
2018-03-01T05:44:53.388Z,67.00
2018-03-01T05:47:21.670Z,67.00
2018-03-01T05:49:50.002Z,67.40
2018-03-01T05:52:19.054Z,67.50
2018-03-01T05:54:47.338Z,67.50
2018-03-01T05:57:15.659Z,67.50
2018-03-01T05:59:44.710Z,67.30
2018-03-01T06:02:13.365Z,67.30
2018-03-01T06:04:43.164Z,67.30
2018-03-01T06:07:11.455Z,67.30
2018-03-01T06:09:39.790Z,67.30
2018-03-01T06:12:08.851Z,67.20
2018-03-01T06:14:37.142Z,67.10
2018-03-01T06:17:05.463Z,67.20
2018-03-01T06:19:34.531Z,67.20
2018-03-01T06:22:02.843Z,67.20
2018-03-01T06:24:31.171Z,68.20
2018-03-01T06:27:00.250Z,67.70
2018-03-01T06:29:28.543Z,67.60
2018-03-01T06:31:57.664Z,67.50
2018-03-01T06:34:25.962Z,67.40
2018-03-01T06:36:54.255Z,67.30
2018-03-01T06:39:22.546Z,67.00
2018-03-01T06:41:51.169Z,66.80
2018-03-01T06:44:19.481Z,66.70
2018-03-01T06:46:47.780Z,66.80
2018-03-01T06:49:16.103Z,66.70
2018-03-01T06:51:44.386Z,66.40
2018-03-01T06:54:13.474Z,66.70
2018-03-01T06:56:41.794Z,66.70
2018-03-01T06:59:10.091Z,67.00
2018-03-01T07:01:38.450Z,66.90
2018-03-01T07:04:07.511Z,66.00
2018-03-01T07:06:35.834Z,65.90
2018-03-01T07:09:04.132Z,65.40
2018-03-01T07:11:32.469Z,65.40
2018-03-01T07:14:00.767Z,64.50
2018-03-01T07:16:29.094Z,64.60
2018-03-01T07:18:57.382Z,64.10
2018-03-01T07:21:25.708Z,63.60
2018-03-01T07:23:54.354Z,63.70
2018-03-01T07:26:22.646Z,63.70
2018-03-01T07:28:50.948Z,63.90
2018-03-01T07:31:19.535Z,63.40
2018-03-01T07:33:47.827Z,63.40
2018-03-01T07:36:16.118Z,63.00
2018-03-01T07:38:44.451Z,62.50
2018-03-01T07:41:12.779Z,61.70
2018-03-01T07:43:41.104Z,61.60
2018-03-01T07:46:10.200Z,61.70
2018-03-01T07:48:38.477Z,61.70
2018-03-01T07:51:06.824Z,60.70
2018-03-01T07:53:35.881Z,59.90
2018-03-01T07:56:04.174Z,59.90
2018-03-01T07:58:32.495Z,59.10
2018-03-01T08:01:00.795Z,59.20
2018-03-01T08:03:29.114Z,58.90
2018-03-01T08:05:57.438Z,59.90
2018-03-01T08:08:25.767Z,59.70
2018-03-01T08:10:54.062Z,59.20
2018-03-01T08:13:22.389Z,59.20
2018-03-01T08:15:52.185Z,57.50
2018-03-01T08:18:20.498Z,57.40
2018-03-01T08:20:48.818Z,56.80
2018-03-01T08:23:17.876Z,57.30
2018-03-01T08:25:46.167Z,57.30
2018-03-01T08:28:14.487Z,57.10
2018-03-01T08:30:42.779Z,56.00
2018-03-01T08:33:11.067Z,56.20
2018-03-01T08:35:39.404Z,56.10
2018-03-01T08:38:07.730Z,55.70
2018-03-01T08:40:36.046Z,55.70
2018-03-01T08:43:05.110Z,55.70
2018-03-01T08:45:33.423Z,55.70
2018-03-01T08:48:01.711Z,55.30
2018-03-01T08:50:30.026Z,56.60
2018-03-01T08:52:59.106Z,56.10
2018-03-01T08:55:27.390Z,56.10
2018-03-01T08:57:55.740Z,55.20
2018-03-01T09:00:24.053Z,55.00
2018-03-01T09:02:52.338Z,54.90
2018-03-01T09:05:20.662Z,55.40
2018-03-01T09:07:48.950Z,55.60
2018-03-01T09:10:17.275Z,53.90
2018-03-01T09:12:45.566Z,53.30
2018-03-01T09:15:13.886Z,53.30
2018-03-01T09:17:42.434Z,53.10
2018-03-01T09:20:11.486Z,53.60
2018-03-01T09:22:39.780Z,53.60
2018-03-01T09:25:08.106Z,53.70
2018-03-01T09:27:36.386Z,53.10
2018-03-01T09:30:04.778Z,53.20
2018-03-01T09:32:33.098Z,52.90
2018-03-01T09:35:02.181Z,51.50
2018-03-01T09:37:30.479Z,51.50
2018-03-01T09:39:58.794Z,52.10
2018-03-01T09:42:28.146Z,52.10
2018-03-01T09:44:56.427Z,52.10
2018-03-01T09:47:24.706Z,50.60
2018-03-01T09:49:53.023Z,51.20
2018-03-01T09:52:21.338Z,50.40
2018-03-01T09:54:50.399Z,51.00
2018-03-01T09:57:18.724Z,50.70
2018-03-01T09:59:47.050Z,50.80
2018-03-01T10:02:16.094Z,51.60
2018-03-01T10:04:44.715Z,51.60
2018-03-01T10:07:13.048Z,50.60
2018-03-01T10:09:41.308Z,50.60
2018-03-01T10:12:09.637Z,51.60
2018-03-01T10:14:37.916Z,51.20
2018-03-01T10:17:06.229Z,51.30
2018-03-01T10:19:34.519Z,50.40
2018-03-01T10:22:02.847Z,49.70
2018-03-01T10:24:31.139Z,49.70
2018-03-01T10:27:00.228Z,50.50
2018-03-01T10:29:28.515Z,50.60
2018-03-01T10:31:56.834Z,50.40
2018-03-01T10:34:25.158Z,50.60
2018-03-01T10:36:53.447Z,49.80
2018-03-01T10:39:21.762Z,49.70
2018-03-01T10:41:50.048Z,48.30
2018-03-01T10:44:18.676Z,48.00
2018-03-01T10:46:48.468Z,48.80
2018-03-01T10:49:16.756Z,48.80
2018-03-01T10:51:45.079Z,47.70
2018-03-01T10:54:13.358Z,48.30
2018-03-01T10:56:41.645Z,48.90
2018-03-01T10:59:09.959Z,48.30
2018-03-01T11:01:38.282Z,48.90
2018-03-01T11:04:06.571Z,49.10
2018-03-01T11:06:34.858Z,48.20
2018-03-01T11:09:03.178Z,49.00
2018-03-01T11:11:31.470Z,47.30
2018-03-01T11:13:59.794Z,46.50
2018-03-01T11:16:28.086Z,45.80
2018-03-01T11:18:56.398Z,46.00
2018-03-01T11:21:24.695Z,47.00
2018-03-01T11:23:52.980Z,47.50
2018-03-01T11:26:21.299Z,47.40
2018-03-01T11:28:49.619Z,47.90
2018-03-01T11:31:17.909Z,48.10
2018-03-01T11:33:46.194Z,47.40
2018-03-01T11:36:14.518Z,47.50
2018-03-01T11:38:43.571Z,47.30
2018-03-01T11:41:11.895Z,47.30
2018-03-01T11:43:40.182Z,47.30
2018-03-01T11:46:08.495Z,47.50
2018-03-01T11:48:37.542Z,47.90
2018-03-01T11:51:05.854Z,47.90
2018-03-01T11:53:34.176Z,47.70
2018-03-01T11:56:03.246Z,47.30
2018-03-01T11:58:31.530Z,47.30
2018-03-01T12:00:59.898Z,47.60
2018-03-01T12:03:28.946Z,47.30
2018-03-01T12:05:57.230Z,47.30
2018-03-01T12:08:25.555Z,46.70
2018-03-01T12:10:53.873Z,46.60
2018-03-01T12:13:22.154Z,46.70
2018-03-01T12:15:50.479Z,47.60
2018-03-01T12:18:18.771Z,47.10
2018-03-01T12:20:47.057Z,45.40
2018-03-01T12:23:15.379Z,44.90
2018-03-01T12:25:44.454Z,45.80
2018-03-01T12:28:12.745Z,45.70
2018-03-01T12:30:41.087Z,46.80
2018-03-01T12:33:09.731Z,46.80
2018-03-01T12:35:38.010Z,46.20
2018-03-01T12:38:06.299Z,46.40
2018-03-01T12:40:34.623Z,46.60
2018-03-01T12:43:03.702Z,46.50
2018-03-01T12:45:31.990Z,46.50
2018-03-01T12:48:00.319Z,46.20
2018-03-01T12:50:29.373Z,46.40
2018-03-01T12:52:57.706Z,46.30
2018-03-01T12:55:26.756Z,47.00
2018-03-01T12:57:55.047Z,46.70
2018-03-01T13:00:23.377Z,47.00
2018-03-01T13:02:51.698Z,45.80
2018-03-01T13:05:20.432Z,45.50
2018-03-01T13:07:48.713Z,45.60
2018-03-01T13:10:17.039Z,46.70
2018-03-01T13:12:45.614Z,46.60
2018-03-01T13:15:13.903Z,46.10
2018-03-01T13:17:42.195Z,46.40
2018-03-01T13:20:10.514Z,46.40
2018-03-01T13:22:38.799Z,46.90
2018-03-01T13:25:08.923Z,46.20
2018-03-01T13:27:37.214Z,46.20
2018-03-01T13:30:12.127Z,46.10
2018-03-01T13:32:58.303Z,46.10
2018-03-01T13:35:32.305Z,45.60
2018-03-01T13:38:00.630Z,45.60
2018-03-01T13:40:28.910Z,45.70
2018-03-01T13:42:59.833Z,45.90
2018-03-01T13:45:28.619Z,46.40
2018-03-01T13:48:08.352Z,46.20
2018-03-01T13:50:37.627Z,46.10
2018-03-01T13:53:06.684Z,45.80
2018-03-01T13:55:35.006Z,45.80
2018-03-01T13:58:03.327Z,45.40
2018-03-01T14:00:31.610Z,45.40
2018-03-01T14:02:59.930Z,45.60
2018-03-01T14:05:28.256Z,45.70
2018-03-01T14:07:57.466Z,45.80
2018-03-01T14:10:25.786Z,46.10
2018-03-01T14:12:59.793Z,46.00
2018-03-01T14:15:28.884Z,45.90
2018-03-01T14:21:22.730Z,45.70
2018-03-01T14:23:56.746Z,46.10
2018-03-01T14:26:31.440Z,45.10
2018-03-01T14:32:04.262Z,44.90
2018-03-01T14:34:32.580Z,45.30
2018-03-01T14:37:00.861Z,45.70
2018-03-01T14:39:29.182Z,45.90
2018-03-01T14:41:57.465Z,45.90
2018-03-01T14:44:25.782Z,45.60
2018-03-01T14:46:54.105Z,45.50
2018-03-01T14:49:22.430Z,46.10
2018-03-01T14:51:52.267Z,45.80
2018-03-01T14:54:20.536Z,45.80
2018-03-01T14:56:48.850Z,45.80
2018-03-01T14:59:17.906Z,46.00
2018-03-01T15:01:46.187Z,45.90
2018-03-01T15:04:14.514Z,45.60
2018-03-01T15:06:42.834Z,46.30
2018-03-01T15:09:11.891Z,46.50
2018-03-01T15:11:40.970Z,45.70
2018-03-01T15:14:09.313Z,45.70
2018-03-01T15:16:37.602Z,46.00
2018-03-01T15:19:05.922Z,46.00
2018-03-01T15:21:35.083Z,46.00
2018-03-01T15:24:03.390Z,46.00
2018-03-01T15:26:31.702Z,46.10
2018-03-01T15:29:00.754Z,46.60
2018-03-01T15:31:29.479Z,46.50
2018-03-01T15:33:57.770Z,47.00
2018-03-01T15:36:26.054Z,46.90
2018-03-01T15:38:54.376Z,46.80
2018-03-01T15:41:23.473Z,46.50
2018-03-01T15:43:51.794Z,46.40
2018-03-01T15:46:20.075Z,46.30
2018-03-01T15:48:48.367Z,46.80
2018-03-01T15:51:16.677Z,46.90
2018-03-01T15:53:45.323Z,47.30
2018-03-01T15:56:13.643Z,47.30
2018-03-01T15:58:41.990Z,47.30
2018-03-01T16:01:10.295Z,47.40
2018-03-01T16:03:38.610Z,47.40
2018-03-01T16:06:06.938Z,47.70
2018-03-01T16:08:35.239Z,47.80
2018-03-01T16:11:03.561Z,47.70
2018-03-01T16:13:32.688Z,48.00
2018-03-01T16:16:00.955Z,48.00
2018-03-01T16:18:30.047Z,47.80
2018-03-01T16:20:58.330Z,47.80
2018-03-01T16:23:26.654Z,48.10
2018-03-01T16:25:55.712Z,47.70
2018-03-01T16:28:24.007Z,47.70
2018-03-01T16:30:52.321Z,47.90
2018-03-01T16:33:20.610Z,48.30
2018-03-01T16:35:48.938Z,48.50
2018-03-01T16:38:17.231Z,48.40
2018-03-01T16:40:45.550Z,48.80
2018-03-01T16:43:13.843Z,48.60
2018-03-01T16:45:42.130Z,48.70
2018-03-01T16:48:10.446Z,49.20
2018-03-01T16:50:39.503Z,49.10
2018-03-01T16:53:07.818Z,49.10
2018-03-01T16:55:36.108Z,48.90
2018-03-01T16:58:04.498Z,49.30
2018-03-01T17:00:32.838Z,49.30
2018-03-01T17:03:01.434Z,49.20
2018-03-01T17:05:30.477Z,49.50
2018-03-01T17:07:58.767Z,49.50
2018-03-01T17:10:27.097Z,49.60
2018-03-01T17:12:55.422Z,49.50
2018-03-01T17:15:23.706Z,49.80
2018-03-01T17:17:52.028Z,49.80
2018-03-01T17:20:20.311Z,49.80
2018-03-01T17:22:48.947Z,50.20
2018-03-01T17:25:18.742Z,50.20
2018-03-01T17:27:47.031Z,50.20
2018-03-01T17:30:15.353Z,49.90
2018-03-01T17:32:43.664Z,50.10
2018-03-01T17:35:12.747Z,50.40
2018-03-01T17:37:41.075Z,50.40
2018-03-01T17:40:09.390Z,50.50
2018-03-01T17:42:37.675Z,50.30
2018-03-01T17:45:05.995Z,50.60
2018-03-01T17:47:34.278Z,50.80
2018-03-01T17:50:02.604Z,50.70
2018-03-01T17:52:31.690Z,51.00
2018-03-01T17:55:00.012Z,51.00
2018-03-01T17:57:28.626Z,51.10
2018-03-01T17:59:56.916Z,51.30
2018-03-01T18:02:25.202Z,51.50
2018-03-01T18:04:53.522Z,51.50
2018-03-01T18:07:21.839Z,51.50
2018-03-01T18:09:50.127Z,51.50
2018-03-01T18:12:18.450Z,52.80
2018-03-01T18:14:46.743Z,56.80
2018-03-01T18:17:15.070Z,52.40
2018-03-01T18:19:43.375Z,51.90
2018-03-01T18:22:11.693Z,51.80
2018-03-01T18:24:40.808Z,52.20
2018-03-01T18:27:09.927Z,52.10
2018-03-01T18:29:38.242Z,52.10
2018-03-01T18:32:06.526Z,52.20
2018-03-01T18:34:34.856Z,52.30
2018-03-01T18:37:03.169Z,52.50
2018-03-01T18:39:32.219Z,53.10
2018-03-01T18:42:00.547Z,53.00
2018-03-01T18:44:28.839Z,53.00
2018-03-01T18:46:57.138Z,53.70
2018-03-01T18:49:26.272Z,53.30
2018-03-01T18:51:55.306Z,53.30
2018-03-01T18:54:23.629Z,53.30
2018-03-01T18:56:51.918Z,53.30
2018-03-01T18:59:20.247Z,53.40
2018-03-01T19:01:48.535Z,53.20
2018-03-01T19:04:16.863Z,53.70
2018-03-01T19:06:45.195Z,53.80
2018-03-01T19:09:14.246Z,53.90
2018-03-01T19:11:42.535Z,53.90
2018-03-01T19:14:10.867Z,53.90
2018-03-01T19:16:39.160Z,53.90
2018-03-01T19:19:08.248Z,54.00
2018-03-01T19:21:36.579Z,54.00
2018-03-01T19:24:04.878Z,54.20
2018-03-01T19:26:33.166Z,54.20
2018-03-01T19:29:01.598Z,54.40
2018-03-01T19:31:30.090Z,54.60
2018-03-01T19:33:58.483Z,54.80
2018-03-01T19:36:26.804Z,54.70
2018-03-01T19:38:55.896Z,55.20
2018-03-01T19:41:24.234Z,55.10
2018-03-01T19:43:52.563Z,55.40
2018-03-01T19:46:20.855Z,55.40
2018-03-01T19:48:49.418Z,55.30
2018-03-01T19:51:17.711Z,55.40
2018-03-01T19:53:46.242Z,55.30
2018-03-01T19:56:14.568Z,55.40
2018-03-01T19:58:42.875Z,55.50
2018-03-01T20:01:11.162Z,55.40
2018-03-01T20:03:39.497Z,55.50
2018-03-01T20:06:07.817Z,56.00
2018-03-01T20:08:36.866Z,60.90
2018-03-01T20:11:05.190Z,61.00
2018-03-01T20:13:33.526Z,56.90
2018-03-01T20:16:01.817Z,61.20
2018-03-01T20:18:30.140Z,56.90
2018-03-01T20:20:58.435Z,56.20
2018-03-01T20:23:26.746Z,56.30
2018-03-01T20:25:55.043Z,56.60
2018-03-01T20:28:24.143Z,56.60
2018-03-01T20:30:53.230Z,56.90
2018-03-01T20:33:21.744Z,56.80
2018-03-01T20:35:50.865Z,57.20
2018-03-01T20:38:19.152Z,57.10
2018-03-01T20:40:48.202Z,57.10
2018-03-01T20:43:16.530Z,57.10
2018-03-01T20:45:44.866Z,57.20
2018-03-01T20:48:13.194Z,57.50
2018-03-01T20:50:41.487Z,56.80
2018-03-01T20:53:09.780Z,56.60
2018-03-01T20:55:38.387Z,56.70
2018-03-01T20:58:08.182Z,57.00
2018-03-01T21:00:36.475Z,57.00
2018-03-01T21:03:04.809Z,56.80
2018-03-01T21:05:33.859Z,56.70
2018-03-01T21:08:02.157Z,56.70
2018-03-01T21:10:30.485Z,56.80
2018-03-01T21:12:58.766Z,57.20
2018-03-01T21:15:27.054Z,56.40
2018-03-01T21:17:55.414Z,56.40
2018-03-01T21:20:23.700Z,56.30
2018-03-01T21:22:52.026Z,55.80
2018-03-01T21:25:20.314Z,55.80
2018-03-01T21:27:48.648Z,55.70
2018-03-01T21:30:16.974Z,55.90
2018-03-01T21:32:45.290Z,55.90
2018-03-01T21:35:13.574Z,55.40
2018-03-01T21:37:41.895Z,55.60
2018-03-01T21:40:10.183Z,55.60
2018-03-01T21:42:38.506Z,55.60
2018-03-01T21:45:06.795Z,55.50
2018-03-01T21:47:35.106Z,55.40
2018-03-01T21:50:03.397Z,55.30
2018-03-01T21:52:31.770Z,55.50
2018-03-01T21:55:00.086Z,55.40
2018-03-01T21:57:28.773Z,55.40
2018-03-01T21:59:57.067Z,55.30
2018-03-01T22:02:25.350Z,55.20
2018-03-01T22:04:54.462Z,56.20
2018-03-01T22:07:24.296Z,55.70
2018-03-01T22:09:52.618Z,55.80
2018-03-01T22:12:20.911Z,55.90
2018-03-01T22:14:49.243Z,55.80
2018-03-01T22:17:17.535Z,55.60
2018-03-01T22:19:45.858Z,55.40
2018-03-01T22:22:14.171Z,55.40
2018-03-01T22:24:43.246Z,56.40
2018-03-01T22:27:11.534Z,55.90
2018-03-01T22:29:39.855Z,55.90
2018-03-01T22:32:08.178Z,55.50
2018-03-01T22:34:36.470Z,55.60
2018-03-01T22:37:04.762Z,55.60
2018-03-01T22:39:33.084Z,55.30
2018-03-01T22:42:01.366Z,55.50
2018-03-01T22:44:29.663Z,55.50
2018-03-01T22:46:57.977Z,55.80
2018-03-01T22:49:26.275Z,55.80
2018-03-01T22:51:54.665Z,55.80
2018-03-01T22:54:22.954Z,55.90
2018-03-01T22:56:51.244Z,56.00
2018-03-01T22:59:19.567Z,56.30
2018-03-01T23:01:47.895Z,56.80
2018-03-01T23:04:16.242Z,56.80
2018-03-01T23:06:44.536Z,57.00
2018-03-01T23:09:12.854Z,56.90
2018-03-01T23:11:41.183Z,57.20
2018-03-01T23:14:09.470Z,57.50
2018-03-01T23:16:37.794Z,58.00
2018-03-01T23:19:06.102Z,58.20
2018-03-01T23:21:34.402Z,58.40
2018-03-01T23:24:02.746Z,58.50
2018-03-01T23:26:31.042Z,58.90
2018-03-01T23:28:59.370Z,58.90
2018-03-01T23:31:27.675Z,59.00
2018-03-01T23:33:56.751Z,59.10
2018-03-01T23:36:25.084Z,59.10
2018-03-01T23:38:54.174Z,59.10
2018-03-01T23:41:23.277Z,59.30
2018-03-01T23:43:51.566Z,59.30
2018-03-01T23:46:20.250Z,59.20
2018-03-01T23:48:48.550Z,59.50
2018-03-01T23:51:16.840Z,59.50
2018-03-01T23:53:45.175Z,59.50
2018-03-01T23:56:13.484Z,59.50
2018-03-01T23:58:41.811Z,59.50
